createdAt,value
2017-11-23T00:00:52.319Z,7.24
2017-11-23T00:01:52.617Z,7.36
2017-11-23T00:02:52.627Z,7.32
2017-11-23T00:03:52.630Z,7.28
2017-11-23T00:04:52.646Z,7.32
2017-11-23T00:05:52.383Z,7.24
2017-11-23T00:06:52.397Z,7.32
2017-11-23T00:07:52.683Z,7.35
2017-11-23T00:08:52.706Z,7.35
2017-11-23T00:09:52.450Z,7.24
2017-11-23T00:10:52.445Z,7.36
2017-11-23T00:11:52.775Z,7.24
2017-11-23T00:12:52.758Z,7.35
2017-11-23T00:13:52.490Z,7.23
2017-11-23T00:14:52.767Z,7.24
2017-11-23T00:15:52.781Z,7.23
2017-11-23T00:16:52.795Z,7.18
2017-11-23T00:17:52.805Z,7.21
2017-11-23T00:18:52.552Z,7.2
2017-11-23T00:19:52.842Z,7.23
2017-11-23T00:20:52.845Z,7.29
2017-11-23T00:21:52.597Z,7.2
2017-11-23T00:22:52.872Z,7.25
2017-11-23T00:23:52.606Z,7.2
2017-11-23T00:24:52.623Z,7.17
2017-11-23T00:25:52.912Z,7.29
2017-11-23T00:26:52.923Z,7.25
2017-11-23T00:27:52.688Z,7.2
2017-11-23T00:28:52.678Z,7.24
2017-11-23T00:29:52.687Z,7.24
2017-11-23T00:30:52.702Z,7.28
2017-11-23T00:31:52.982Z,7.2
2017-11-23T00:32:52.995Z,7.18
2017-11-23T00:33:53.006Z,7.24
2017-11-23T00:34:53.019Z,7.18
2017-11-23T00:35:53.054Z,7.17
2017-11-23T00:36:53.053Z,7.21
2017-11-23T00:37:53.057Z,7.2
2017-11-23T00:38:53.072Z,7.17
2017-11-23T00:39:53.080Z,7.24
2017-11-23T00:40:53.094Z,7.24
2017-11-23T00:41:52.840Z,7.2
2017-11-23T00:42:53.113Z,7.14
2017-11-23T00:43:52.863Z,7.2
2017-11-23T00:44:52.875Z,7.2
2017-11-23T00:45:53.153Z,7.17
2017-11-23T00:46:53.169Z,7.14
2017-11-23T00:47:53.188Z,7.2
2017-11-23T00:48:52.927Z,7.18
2017-11-23T00:49:53.213Z,7.17
2017-11-23T00:50:53.220Z,7.15
2017-11-23T00:51:53.237Z,7.14
2017-11-23T00:52:53.262Z,7.11
2017-11-23T00:53:52.990Z,7.17
2017-11-23T00:54:53.000Z,7.15
2017-11-23T00:55:53.281Z,7.17
2017-11-23T00:56:53.320Z,7.17
2017-11-23T00:57:53.034Z,7.13
2017-11-23T00:58:53.319Z,7.23
2017-11-23T00:59:53.338Z,7.23
2017-11-23T01:00:53.345Z,7.15
2017-11-23T01:01:53.417Z,7.15
2017-11-23T01:02:53.098Z,7.17
2017-11-23T01:03:53.113Z,7.15
2017-11-23T01:04:53.390Z,7.17
2017-11-23T01:05:53.139Z,7.14
2017-11-23T01:06:53.413Z,7.23
2017-11-23T01:07:53.165Z,7.15
2017-11-23T01:08:53.450Z,7.15
2017-11-23T01:09:53.455Z,7.14
2017-11-23T01:10:53.201Z,7.18
2017-11-23T01:11:53.212Z,7.13
2017-11-23T01:12:53.495Z,7.21
2017-11-23T01:13:53.269Z,7.18
2017-11-23T01:14:53.445Z,7.15
2017-11-23T01:15:53.529Z,7.13
2017-11-23T01:16:53.542Z,7.15
2017-11-23T01:17:53.284Z,7.2
2017-11-23T01:18:53.563Z,7.15
2017-11-23T01:19:53.588Z,7.14
2017-11-23T01:20:53.322Z,7.2
2017-11-23T01:21:53.608Z,7.18
2017-11-23T01:22:53.347Z,7.18
2017-11-23T01:23:53.630Z,7.17
2017-11-23T01:24:53.371Z,7.17
2017-11-23T01:25:53.659Z,7.2
2017-11-23T01:26:53.670Z,7.18
2017-11-23T01:27:53.679Z,7.15
2017-11-23T01:28:53.423Z,7.23
2017-11-23T01:29:53.438Z,7.15
2017-11-23T01:30:53.443Z,7.18
2017-11-23T01:31:53.729Z,7.18
2017-11-23T01:32:53.741Z,7.2
2017-11-23T01:33:53.759Z,7.17
2017-11-23T01:34:53.494Z,7.15
2017-11-23T01:35:53.784Z,7.17
2017-11-23T01:36:53.522Z,7.23
2017-11-23T01:37:53.533Z,7.28
2017-11-23T01:38:53.545Z,7.15
2017-11-23T01:39:53.575Z,7.14
2017-11-23T01:40:53.834Z,7.18
2017-11-23T01:41:53.579Z,7.21
2017-11-23T01:42:53.863Z,7.21
2017-11-23T01:43:53.881Z,7.21
2017-11-23T01:44:53.899Z,7.14
2017-11-23T01:45:53.904Z,7.17
2017-11-23T01:46:53.918Z,7.14
2017-11-23T01:47:53.935Z,7.17
2017-11-23T01:48:53.667Z,7.15
2017-11-23T01:49:53.947Z,7.17
2017-11-23T01:50:53.974Z,7.15
2017-11-23T01:51:53.724Z,7.21
2017-11-23T01:52:53.999Z,7.13
2017-11-23T01:53:54.019Z,7.18
2017-11-23T01:54:54.033Z,7.21
2017-11-23T01:55:54.036Z,7.14
2017-11-23T01:56:54.053Z,7.15
2017-11-23T01:57:54.070Z,7.2
2017-11-23T01:58:54.075Z,7.2
2017-11-23T01:59:54.235Z,7.21
2017-11-23T02:00:54.097Z,7.18
2017-11-23T02:01:53.867Z,7.17
2017-11-23T02:02:54.120Z,7.14
2017-11-23T02:03:54.136Z,7.2
2017-11-23T02:04:53.877Z,7.2
2017-11-23T02:05:54.168Z,7.2
2017-11-23T02:06:54.177Z,7.2
2017-11-23T02:07:54.194Z,7.2
2017-11-23T02:08:54.208Z,7.14
2017-11-23T02:09:53.936Z,7.1
2017-11-23T02:10:53.957Z,7.11
2017-11-23T02:11:54.237Z,7.17
2017-11-23T02:12:54.254Z,7.18
2017-11-23T02:13:54.264Z,7.21
2017-11-23T02:14:54.279Z,7.15
2017-11-23T02:15:54.015Z,7.21
2017-11-23T02:16:54.299Z,7.15
2017-11-23T02:17:54.313Z,7.2
2017-11-23T02:18:54.328Z,7.18
2017-11-23T02:19:54.337Z,7.15
2017-11-23T02:20:54.351Z,7.13
2017-11-23T02:21:54.372Z,7.17
2017-11-23T02:22:54.138Z,7.18
2017-11-23T02:23:54.119Z,7.17
2017-11-23T02:24:54.404Z,7.1
2017-11-23T02:25:54.136Z,7.13
2017-11-23T02:26:54.596Z,7.14
2017-11-23T02:27:54.505Z,7.1
2017-11-23T02:28:54.447Z,7.14
2017-11-23T02:29:54.191Z,7.17
2017-11-23T02:30:54.503Z,7.15
2017-11-23T02:31:54.493Z,7.2
2017-11-23T02:32:54.222Z,7.1
2017-11-23T02:33:54.516Z,7.07
2017-11-23T02:34:54.519Z,7.1
2017-11-23T02:35:54.557Z,7.14
2017-11-23T02:36:54.287Z,7.07
2017-11-23T02:37:54.575Z,7.11
2017-11-23T02:38:54.299Z,7.11
2017-11-23T02:39:54.317Z,7.05
2017-11-23T02:40:54.053Z,7.18
2017-11-23T02:41:54.620Z,7.03
2017-11-23T02:42:54.648Z,7.05
2017-11-23T02:43:54.628Z,7.06
2017-11-23T02:44:54.646Z,7.15
2017-11-23T02:45:54.656Z,7.03
2017-11-23T02:46:54.676Z,7.1
2017-11-23T02:47:54.681Z,7
2017-11-23T02:48:54.719Z,7.11
2017-11-23T02:49:54.711Z,7.06
2017-11-23T02:50:54.717Z,7.05
2017-11-23T02:51:54.187Z,7.02
2017-11-23T02:52:54.737Z,7.05
2017-11-23T02:53:54.757Z,7
2017-11-23T02:54:54.769Z,7.06
2017-11-23T02:55:54.780Z,7.07
2017-11-23T02:56:54.795Z,7.02
2017-11-23T02:57:54.805Z,7.1
2017-11-23T02:58:54.824Z,7.03
2017-11-23T02:59:54.830Z,7.06
2017-11-23T03:00:54.844Z,7.13
2017-11-23T03:01:54.605Z,7.02
2017-11-23T03:02:54.597Z,7.06
2017-11-23T03:03:54.606Z,6.99
2017-11-23T03:04:54.899Z,7.06
2017-11-23T03:05:54.629Z,7
2017-11-23T03:06:54.638Z,7.03
2017-11-23T03:07:54.661Z,7.02
2017-11-23T03:08:54.937Z,6.95
2017-11-23T03:09:54.948Z,6.95
2017-11-23T03:10:54.971Z,6.93
2017-11-23T03:11:54.980Z,7.02
2017-11-23T03:12:54.715Z,6.93
2017-11-23T03:13:54.728Z,6.89
2017-11-23T03:14:55.008Z,6.88
2017-11-23T03:15:55.026Z,6.88
2017-11-23T03:16:55.033Z,6.92
2017-11-23T03:17:55.050Z,6.92
2017-11-23T03:18:55.066Z,6.88
2017-11-23T03:19:54.803Z,6.92
2017-11-23T03:20:54.812Z,6.92
2017-11-23T03:21:54.555Z,6.92
2017-11-23T03:22:55.116Z,6.97
2017-11-23T03:23:55.121Z,6.88
2017-11-23T03:24:55.133Z,6.95
2017-11-23T03:25:54.880Z,6.96
2017-11-23T03:26:55.167Z,6.89
2017-11-23T03:27:54.903Z,6.88
2017-11-23T03:28:54.640Z,6.89
2017-11-23T03:29:54.928Z,6.96
2017-11-23T03:30:54.941Z,6.92
2017-11-23T03:31:54.961Z,6.89
2017-11-23T03:32:55.232Z,6.93
2017-11-23T03:33:55.245Z,6.93
2017-11-23T03:34:55.421Z,6.89
2017-11-23T03:35:55.270Z,6.95
2017-11-23T03:36:55.302Z,6.88
2017-11-23T03:37:55.022Z,6.92
2017-11-23T03:38:55.311Z,6.96
2017-11-23T03:39:55.341Z,6.96
2017-11-23T03:40:55.339Z,6.92
2017-11-23T03:41:55.413Z,6.92
2017-11-23T03:42:55.353Z,6.92
2017-11-23T03:43:55.410Z,6.92
2017-11-23T03:44:55.377Z,6.89
2017-11-23T03:45:55.397Z,6.99
2017-11-23T03:46:55.130Z,6.92
2017-11-23T03:47:55.422Z,6.89
2017-11-23T03:48:55.432Z,6.92
2017-11-23T03:49:55.173Z,6.92
2017-11-23T03:50:55.456Z,6.93
2017-11-23T03:51:55.195Z,6.93
2017-11-23T03:52:55.483Z,6.92
2017-11-23T03:53:55.494Z,6.93
2017-11-23T03:54:55.235Z,7.03
2017-11-23T03:55:55.241Z,6.93
2017-11-23T03:56:55.525Z,6.92
2017-11-23T03:57:55.544Z,6.93
2017-11-23T03:58:55.556Z,6.92
2017-11-23T03:59:55.289Z,6.93
2017-11-23T04:00:55.301Z,7.02
2017-11-23T04:01:55.313Z,6.95
2017-11-23T04:02:55.601Z,7
2017-11-23T04:03:55.615Z,6.95
2017-11-23T04:04:55.353Z,7.02
2017-11-23T04:05:55.651Z,6.97
2017-11-23T04:06:55.648Z,7.02
2017-11-23T04:07:55.655Z,6.93
2017-11-23T04:08:55.673Z,6.96
2017-11-23T04:09:55.683Z,7
2017-11-23T04:10:55.885Z,6.93
2017-11-23T04:11:55.456Z,7.06
2017-11-23T04:12:55.809Z,6.97
2017-11-23T04:13:55.501Z,6.92
2017-11-23T04:14:55.506Z,6.92
2017-11-23T04:15:55.760Z,7.05
2017-11-23T04:16:55.768Z,6.95
2017-11-23T04:17:55.509Z,6.92
2017-11-23T04:18:55.830Z,6.92
2017-11-23T04:19:55.803Z,7.05
2017-11-23T04:20:55.833Z,6.97
2017-11-23T04:21:55.831Z,7.1
2017-11-23T04:22:55.301Z,7.05
2017-11-23T04:23:55.589Z,6.92
2017-11-23T04:24:55.873Z,6.95
2017-11-23T04:25:55.886Z,7.03
2017-11-23T04:26:55.895Z,7.06
2017-11-23T04:27:55.900Z,7
2017-11-23T04:28:55.917Z,7
2017-11-23T04:29:56.044Z,6.96
2017-11-23T04:30:55.783Z,6.92
2017-11-23T04:31:55.731Z,6.92
2017-11-23T04:32:56.072Z,7.07
2017-11-23T04:33:55.984Z,7.06
2017-11-23T04:34:56.162Z,6.95
2017-11-23T04:35:56.027Z,7.06
2017-11-23T04:36:56.033Z,6.92
2017-11-23T04:37:56.022Z,6.95
2017-11-23T04:38:56.037Z,6.92
2017-11-23T04:39:55.778Z,7.02
2017-11-23T04:40:55.790Z,7.02
2017-11-23T04:41:56.070Z,6.92
2017-11-23T04:42:56.090Z,7.02
2017-11-23T04:43:56.098Z,6.88
2017-11-23T04:44:56.109Z,6.99
2017-11-23T04:45:56.122Z,6.93
2017-11-23T04:46:56.136Z,7.06
2017-11-23T04:47:56.151Z,6.88
2017-11-23T04:48:55.962Z,6.95
2017-11-23T04:49:55.900Z,6.97
2017-11-23T04:50:56.179Z,6.92
2017-11-23T04:51:56.195Z,6.89
2017-11-23T04:52:56.106Z,6.96
2017-11-23T04:53:56.222Z,6.92
2017-11-23T04:54:55.696Z,6.92
2017-11-23T04:55:56.258Z,6.95
2017-11-23T04:56:56.005Z,6.89
2017-11-23T04:57:56.271Z,6.95
2017-11-23T04:58:56.285Z,6.88
2017-11-23T04:59:56.296Z,6.95
2017-11-23T05:00:56.308Z,6.95
2017-11-23T05:01:56.316Z,6.95
2017-11-23T05:02:56.349Z,6.89
2017-11-23T05:03:56.337Z,6.95
2017-11-23T05:04:56.102Z,6.88
2017-11-23T05:05:55.859Z,6.92
2017-11-23T05:06:56.403Z,6.88
2017-11-23T05:07:56.395Z,6.87
2017-11-23T05:08:56.412Z,6.93
2017-11-23T05:09:56.418Z,6.85
2017-11-23T05:10:56.451Z,6.95
2017-11-23T05:11:56.439Z,6.93
2017-11-23T05:12:56.454Z,6.87
2017-11-23T05:13:56.199Z,6.92
2017-11-23T05:14:56.477Z,6.87
2017-11-23T05:15:56.216Z,6.95
2017-11-23T05:16:56.232Z,6.92
2017-11-23T05:17:56.510Z,6.84
2017-11-23T05:18:56.518Z,6.88
2017-11-23T05:19:56.593Z,6.87
2017-11-23T05:20:56.006Z,6.89
2017-11-23T05:21:56.296Z,6.93
2017-11-23T05:22:56.574Z,6.85
2017-11-23T05:23:56.825Z,6.84
2017-11-23T05:24:56.595Z,6.95
2017-11-23T05:25:56.612Z,6.89
2017-11-23T05:26:56.617Z,6.88
2017-11-23T05:27:56.374Z,6.87
2017-11-23T05:28:56.381Z,6.85
2017-11-23T05:29:56.384Z,6.89
2017-11-23T05:30:56.679Z,6.87
2017-11-23T05:31:56.680Z,6.88
2017-11-23T05:32:56.424Z,6.87
2017-11-23T05:33:56.437Z,6.88
2017-11-23T05:34:56.718Z,6.89
2017-11-23T05:35:56.737Z,6.92
2017-11-23T05:36:56.781Z,6.92
2017-11-23T05:37:56.768Z,6.89
2017-11-23T05:38:56.612Z,6.92
2017-11-23T05:39:56.791Z,6.93
2017-11-23T05:40:56.806Z,6.87
2017-11-23T05:41:56.810Z,6.92
2017-11-23T05:42:56.954Z,6.87
2017-11-23T05:43:56.287Z,6.96
2017-11-23T05:44:56.608Z,6.93
2017-11-23T05:45:56.854Z,6.92
2017-11-23T05:46:56.863Z,6.88
2017-11-23T05:47:56.875Z,6.85
2017-11-23T05:48:56.345Z,6.87
2017-11-23T05:49:56.912Z,6.89
2017-11-23T05:50:56.645Z,6.84
2017-11-23T05:51:56.665Z,6.88
2017-11-23T05:52:56.953Z,6.89
2017-11-23T05:53:56.948Z,6.92
2017-11-23T05:54:56.963Z,6.88
2017-11-23T05:55:56.976Z,6.88
2017-11-23T05:56:56.983Z,6.87
2017-11-23T05:57:56.997Z,6.84
2017-11-23T05:58:56.751Z,6.92
2017-11-23T05:59:57.022Z,6.96
2017-11-23T06:00:57.053Z,6.93
2017-11-23T06:01:57.049Z,6.89
2017-11-23T06:02:57.058Z,6.87
2017-11-23T06:03:57.075Z,6.93
2017-11-23T06:04:57.094Z,6.95
2017-11-23T06:05:57.096Z,6.87
2017-11-23T06:06:56.843Z,6.92
2017-11-23T06:07:57.124Z,6.93
2017-11-23T06:08:56.860Z,6.89
2017-11-23T06:09:56.867Z,6.89
2017-11-23T06:10:56.884Z,6.87
2017-11-23T06:11:57.171Z,6.92
2017-11-23T06:12:57.179Z,6.89
2017-11-23T06:13:57.190Z,6.92
2017-11-23T06:14:57.205Z,6.92
2017-11-23T06:15:56.940Z,6.92
2017-11-23T06:16:57.244Z,6.89
2017-11-23T06:17:56.971Z,6.88
2017-11-23T06:18:57.255Z,6.85
2017-11-23T06:19:57.263Z,6.88
2017-11-23T06:20:57.003Z,6.84
2017-11-23T06:21:57.023Z,6.84
2017-11-23T06:22:57.026Z,6.82
2017-11-23T06:23:57.310Z,6.89
2017-11-23T06:24:57.057Z,6.92
2017-11-23T06:25:57.337Z,6.89
2017-11-23T06:26:57.350Z,6.89
2017-11-23T06:27:57.357Z,6.92
2017-11-23T06:28:57.371Z,6.88
2017-11-23T06:29:57.385Z,6.85
2017-11-23T06:30:57.134Z,6.87
2017-11-23T06:31:57.136Z,6.88
2017-11-23T06:32:57.422Z,6.87
2017-11-23T06:33:57.161Z,6.95
2017-11-23T06:34:57.482Z,6.88
2017-11-23T06:35:57.190Z,6.87
2017-11-23T06:36:57.201Z,6.87
2017-11-23T06:37:57.481Z,6.85
2017-11-23T06:38:57.504Z,6.87
2017-11-23T06:39:57.249Z,6.87
2017-11-23T06:40:57.253Z,6.88
2017-11-23T06:41:57.525Z,6.89
2017-11-23T06:42:57.542Z,6.89
2017-11-23T06:43:57.278Z,6.85
2017-11-23T06:44:57.570Z,6.88
2017-11-23T06:45:57.316Z,6.85
2017-11-23T06:46:57.315Z,6.92
2017-11-23T06:47:57.600Z,6.88
2017-11-23T06:48:57.625Z,6.84
2017-11-23T06:49:57.625Z,6.88
2017-11-23T06:50:57.655Z,6.88
2017-11-23T06:51:57.648Z,6.92
2017-11-23T06:52:57.116Z,6.95
2017-11-23T06:53:57.693Z,6.93
2017-11-23T06:54:57.696Z,6.93
2017-11-23T06:55:57.703Z,6.89
2017-11-23T06:56:57.709Z,6.89
2017-11-23T06:57:57.457Z,6.89
2017-11-23T06:58:57.742Z,6.89
2017-11-23T06:59:57.471Z,6.97
2017-11-23T07:00:57.764Z,6.92
2017-11-23T07:01:57.603Z,6.88
2017-11-23T07:02:57.799Z,6.95
2017-11-23T07:03:57.845Z,6.87
2017-11-23T07:04:57.803Z,6.88
2017-11-23T07:05:57.822Z,6.92
2017-11-23T07:06:57.831Z,6.95
2017-11-23T07:07:57.852Z,6.95
2017-11-23T07:08:57.867Z,6.92
2017-11-23T07:09:57.875Z,6.92
2017-11-23T07:10:57.610Z,6.88
2017-11-23T07:11:57.902Z,6.92
2017-11-23T07:12:57.906Z,6.92
2017-11-23T07:13:57.917Z,7.05
2017-11-23T07:14:57.659Z,7.05
2017-11-23T07:15:57.948Z,7.03
2017-11-23T07:16:57.955Z,7.07
2017-11-23T07:17:57.696Z,7.03
2017-11-23T07:18:57.978Z,7.06
2017-11-23T07:19:57.994Z,7.05
2017-11-23T07:20:58.011Z,7.02
2017-11-23T07:21:58.021Z,7
2017-11-23T07:22:58.031Z,7.02
2017-11-23T07:23:58.040Z,7.07
2017-11-23T07:24:58.054Z,7.13
2017-11-23T07:25:58.061Z,7.07
2017-11-23T07:26:58.076Z,7.06
2017-11-23T07:27:58.092Z,7.13
2017-11-23T07:28:58.133Z,7.14
2017-11-23T07:29:57.846Z,7.15
2017-11-23T07:30:57.858Z,7.17
2017-11-23T07:31:58.138Z,7.17
2017-11-23T07:32:58.144Z,7.23
2017-11-23T07:33:57.617Z,7.15
2017-11-23T07:34:58.174Z,7.13
2017-11-23T07:35:58.183Z,7.18
2017-11-23T07:36:57.921Z,7.21
2017-11-23T07:37:57.937Z,7.28
2017-11-23T07:38:57.981Z,7.28
2017-11-23T07:39:57.962Z,7.28
2017-11-23T07:40:57.970Z,7.31
2017-11-23T07:41:58.261Z,7.32
2017-11-23T07:42:58.024Z,7.4
2017-11-23T07:43:58.037Z,7.35
2017-11-23T07:44:58.298Z,7.43
2017-11-23T07:45:58.309Z,7.45
2017-11-23T07:46:58.322Z,7.42
2017-11-23T07:47:58.059Z,7.48
2017-11-23T07:48:58.344Z,7.48
2017-11-23T07:49:58.362Z,7.48
2017-11-23T07:50:58.096Z,7.53
2017-11-23T07:51:58.380Z,7.51
2017-11-23T07:52:58.117Z,7.5
2017-11-23T07:53:58.135Z,7.48
2017-11-23T07:54:58.413Z,7.58
2017-11-23T07:55:58.432Z,7.61
2017-11-23T07:56:58.446Z,7.57
2017-11-23T07:57:58.458Z,7.61
2017-11-23T07:58:58.471Z,7.66
2017-11-23T07:59:58.477Z,7.7
2017-11-23T08:00:58.516Z,7.66
2017-11-23T08:01:58.502Z,7.69
2017-11-23T08:02:58.247Z,7.76
2017-11-23T08:03:58.539Z,7.72
2017-11-23T08:04:58.272Z,7.82
2017-11-23T08:05:58.553Z,7.77
2017-11-23T08:06:58.297Z,7.82
2017-11-23T08:07:58.312Z,7.79
2017-11-23T08:08:58.616Z,7.79
2017-11-23T08:09:58.609Z,7.8
2017-11-23T08:10:58.351Z,7.83
2017-11-23T08:11:58.629Z,7.87
2017-11-23T08:12:58.374Z,7.9
2017-11-23T08:13:58.655Z,7.82
2017-11-23T08:14:58.400Z,7.87
2017-11-23T08:15:58.406Z,7.9
2017-11-23T08:16:58.686Z,7.91
2017-11-23T08:17:58.434Z,7.94
2017-11-23T08:18:58.719Z,7.93
2017-11-23T08:19:58.737Z,7.97
2017-11-23T08:20:58.745Z,7.95
2017-11-23T08:21:58.508Z,7.93
2017-11-23T08:22:58.494Z,7.97
2017-11-23T08:23:58.786Z,8.01
2017-11-23T08:24:58.791Z,8.01
2017-11-23T08:25:58.530Z,8.05
2017-11-23T08:26:58.817Z,7.97
2017-11-23T08:27:58.556Z,8.03
2017-11-23T08:28:58.841Z,8.05
2017-11-23T08:29:58.853Z,8.06
2017-11-23T08:30:58.872Z,8.06
2017-11-23T08:31:58.617Z,8.15
2017-11-23T08:32:58.894Z,8.08
2017-11-23T08:33:58.910Z,8.19
2017-11-23T08:34:58.920Z,8.19
2017-11-23T08:35:58.928Z,8.1
2017-11-23T08:36:58.953Z,8.18
2017-11-23T08:37:58.684Z,8.16
2017-11-23T08:38:58.962Z,8.16
2017-11-23T08:39:58.982Z,8.15
2017-11-23T08:40:58.994Z,8.24
2017-11-23T08:41:59.010Z,8.2
2017-11-23T08:42:59.021Z,8.15
2017-11-23T08:43:59.070Z,8.28
2017-11-23T08:44:59.050Z,8.23
2017-11-23T08:45:59.059Z,8.24
2017-11-23T08:46:58.804Z,8.24
2017-11-23T08:47:59.087Z,8.33
2017-11-23T08:48:59.107Z,8.34
2017-11-23T08:49:59.113Z,8.31
2017-11-23T08:50:59.129Z,8.38
2017-11-23T08:51:58.861Z,8.37
2017-11-23T08:52:58.879Z,8.31
2017-11-23T08:53:59.162Z,8.44
2017-11-23T08:54:59.177Z,8.48
2017-11-23T08:55:59.184Z,8.45
2017-11-23T08:56:59.203Z,8.44
2017-11-23T08:57:59.216Z,8.41
2017-11-23T08:58:58.966Z,8.52
2017-11-23T08:59:59.236Z,8.51
2017-11-23T09:00:58.985Z,8.55
2017-11-23T09:01:59.270Z,8.55
2017-11-23T09:02:59.008Z,8.56
2017-11-23T09:03:59.289Z,8.63
2017-11-23T09:04:59.301Z,8.66
2017-11-23T09:05:59.312Z,8.66
2017-11-23T09:06:59.053Z,8.66
2017-11-23T09:07:59.068Z,8.69
2017-11-23T09:08:59.083Z,8.76
2017-11-23T09:09:59.367Z,8.69
2017-11-23T09:10:59.397Z,8.67
2017-11-23T09:11:59.388Z,8.81
2017-11-23T09:12:59.138Z,8.81
2017-11-23T09:13:59.145Z,8.74
2017-11-23T09:14:59.433Z,8.79
2017-11-23T09:15:59.454Z,8.82
2017-11-23T09:16:59.475Z,8.88
2017-11-23T09:17:58.956Z,8.76
2017-11-23T09:18:59.232Z,8.92
2017-11-23T09:19:59.500Z,8.88
2017-11-23T09:20:59.509Z,8.92
2017-11-23T09:21:59.262Z,8.91
2017-11-23T09:22:59.270Z,8.89
2017-11-23T09:23:59.572Z,8.95
2017-11-23T09:24:59.565Z,8.99
2017-11-23T09:25:59.598Z,9
2017-11-23T09:26:59.052Z,8.97
2017-11-23T09:27:59.328Z,9.06
2017-11-23T09:28:59.634Z,9.02
2017-11-23T09:29:59.639Z,9.08
2017-11-23T09:30:59.649Z,9.1
2017-11-23T09:31:59.661Z,9.16
2017-11-23T09:32:59.401Z,9.14
2017-11-23T09:33:59.682Z,9.14
2017-11-23T09:34:59.706Z,9.22
2017-11-23T09:35:59.713Z,9.14
2017-11-23T09:36:59.735Z,9.26
2017-11-23T09:37:59.735Z,9.26
2017-11-23T09:38:59.752Z,9.29
2017-11-23T09:39:59.767Z,9.36
2017-11-23T09:40:59.792Z,9.34
2017-11-23T09:41:59.786Z,9.39
2017-11-23T09:42:59.813Z,9.36
2017-11-23T09:43:59.823Z,9.37
2017-11-23T09:44:59.288Z,9.37
2017-11-23T09:45:59.580Z,9.44
2017-11-23T09:46:59.863Z,9.41
2017-11-23T09:47:59.885Z,9.54
2017-11-23T09:48:59.884Z,9.46
2017-11-23T09:49:59.911Z,9.54
2017-11-23T09:50:59.917Z,9.61
2017-11-23T09:51:59.655Z,9.59
2017-11-23T09:52:59.682Z,9.56
2017-11-23T09:53:59.953Z,9.56
2017-11-23T09:54:59.725Z,9.72
2017-11-23T09:55:59.720Z,9.69
2017-11-23T09:57:00.002Z,9.66
2017-11-23T09:58:00.011Z,9.66
2017-11-23T09:59:00.037Z,9.64
2017-11-23T09:59:59.765Z,9.68
2017-11-23T10:00:59.788Z,9.73
2017-11-23T10:02:00.076Z,9.64
2017-11-23T10:03:00.078Z,9.82
2017-11-23T10:03:59.828Z,9.73
2017-11-23T10:04:59.561Z,9.72
2017-11-23T10:06:00.121Z,9.83
2017-11-23T10:06:59.861Z,9.79
2017-11-23T10:07:59.879Z,9.83
2017-11-23T10:09:00.160Z,9.8
2017-11-23T10:10:00.172Z,9.82
2017-11-23T10:11:00.193Z,9.79
2017-11-23T10:12:00.222Z,9.92
2017-11-23T10:12:59.945Z,9.86
2017-11-23T10:14:00.233Z,9.97
2017-11-23T10:15:00.261Z,9.92
2017-11-23T10:16:00.274Z,9.98
2017-11-23T10:17:00.274Z,9.95
2017-11-23T10:18:00.018Z,10.01
2017-11-23T10:19:00.034Z,10.1
2017-11-23T10:20:00.046Z,10.16
2017-11-23T10:21:00.333Z,10.12
2017-11-23T10:22:00.357Z,10.13
2017-11-23T10:23:00.358Z,10.12
2017-11-23T10:24:00.381Z,10.16
2017-11-23T10:25:00.383Z,10.17
2017-11-23T10:26:00.402Z,10.25
2017-11-23T10:27:00.413Z,10.25
2017-11-23T10:28:00.434Z,10.28
2017-11-23T10:29:00.445Z,10.22
2017-11-23T10:30:00.185Z,10.26
2017-11-23T10:31:00.201Z,10.28
2017-11-23T10:32:00.216Z,10.31
2017-11-23T10:33:00.499Z,10.38
2017-11-23T10:34:00.510Z,10.4
2017-11-23T10:35:00.532Z,10.37
2017-11-23T10:36:00.546Z,10.38
2017-11-23T10:37:00.556Z,10.37
2017-11-23T10:38:00.585Z,10.44
2017-11-23T10:39:00.040Z,10.49
2017-11-23T10:40:00.596Z,10.53
2017-11-23T10:41:00.341Z,10.54
2017-11-23T10:42:00.638Z,10.56
2017-11-23T10:43:00.369Z,10.6
2017-11-23T10:44:00.386Z,10.6
2017-11-23T10:45:00.667Z,10.56
2017-11-23T10:46:00.141Z,10.63
2017-11-23T10:47:00.705Z,10.61
2017-11-23T10:48:00.734Z,10.68
2017-11-23T10:49:00.454Z,10.69
2017-11-23T10:50:00.758Z,10.76
2017-11-23T10:51:00.760Z,10.74
2017-11-23T10:52:00.236Z,10.78
2017-11-23T10:53:00.792Z,10.79
2017-11-23T10:54:00.530Z,10.75
2017-11-23T10:55:00.811Z,10.71
2017-11-23T10:56:00.841Z,10.81
2017-11-23T10:57:00.585Z,10.81
2017-11-23T10:58:00.895Z,10.82
2017-11-23T10:59:00.884Z,10.89
2017-11-23T11:00:00.897Z,10.9
2017-11-23T11:01:00.632Z,10.9
2017-11-23T11:02:00.921Z,10.86
2017-11-23T11:03:00.663Z,10.96
2017-11-23T11:04:00.955Z,11
2017-11-23T11:05:00.964Z,10.97
2017-11-23T11:06:00.988Z,10.97
2017-11-23T11:07:00.446Z,11.05
2017-11-23T11:08:01.016Z,11.08
2017-11-23T11:09:00.758Z,11.14
2017-11-23T11:10:01.038Z,11.1
2017-11-23T11:11:01.050Z,11.19
2017-11-23T11:12:00.525Z,11.14
2017-11-23T11:13:01.086Z,11.22
2017-11-23T11:14:00.830Z,11.22
2017-11-23T11:15:01.110Z,11.33
2017-11-23T11:16:01.135Z,11.26
2017-11-23T11:17:01.139Z,11.27
2017-11-23T11:18:00.886Z,11.37
2017-11-23T11:19:01.179Z,11.37
2017-11-23T11:20:01.192Z,11.43
2017-11-23T11:21:01.201Z,11.35
2017-11-23T11:22:01.223Z,11.37
2017-11-23T11:23:01.228Z,11.43
2017-11-23T11:24:00.970Z,11.5
2017-11-23T11:25:01.265Z,11.48
2017-11-23T11:26:01.324Z,11.47
2017-11-23T11:27:01.289Z,11.5
2017-11-23T11:28:01.333Z,11.51
2017-11-23T11:29:01.052Z,11.52
2017-11-23T11:30:01.070Z,11.6
2017-11-23T11:31:01.084Z,11.55
2017-11-23T11:32:01.375Z,11.54
2017-11-23T11:33:01.393Z,11.59
2017-11-23T11:34:01.390Z,11.68
2017-11-23T11:35:01.148Z,11.66
2017-11-23T11:36:01.432Z,11.78
2017-11-23T11:37:01.170Z,11.7
2017-11-23T11:38:01.463Z,11.6
2017-11-23T11:39:01.211Z,11.7
2017-11-23T11:40:01.490Z,11.68
2017-11-23T11:41:01.501Z,11.72
2017-11-23T11:42:01.534Z,11.77
2017-11-23T11:43:01.550Z,11.77
2017-11-23T11:44:01.561Z,11.8
2017-11-23T11:45:01.292Z,11.83
2017-11-23T11:46:01.580Z,11.8
2017-11-23T11:47:01.595Z,11.8
2017-11-23T11:48:01.614Z,11.77
2017-11-23T11:49:01.360Z,11.83
2017-11-23T11:50:01.645Z,11.87
2017-11-23T11:51:01.390Z,11.87
2017-11-23T11:52:01.400Z,11.87
2017-11-23T11:53:01.412Z,11.99
2017-11-23T11:54:01.710Z,11.97
2017-11-23T11:55:01.177Z,11.91
2017-11-23T11:56:01.737Z,11.87
2017-11-23T11:57:01.478Z,11.9
2017-11-23T11:58:01.774Z,11.9
2017-11-23T11:59:01.512Z,11.99
2017-11-23T12:00:01.802Z,12.04
2017-11-23T12:01:01.840Z,12
2017-11-23T12:02:01.824Z,11.95
2017-11-23T12:03:01.847Z,11.95
2017-11-23T12:04:01.861Z,12.07
2017-11-23T12:05:01.878Z,12.07
2017-11-23T12:06:01.619Z,12
2017-11-23T12:07:01.632Z,12.12
2017-11-23T12:08:01.654Z,12.15
2017-11-23T12:09:01.669Z,12.13
2017-11-23T12:10:01.968Z,12.13
2017-11-23T12:11:01.703Z,12.1
2017-11-23T12:12:01.983Z,12.21
2017-11-23T12:13:02.004Z,12.2
2017-11-23T12:14:02.031Z,12.25
2017-11-23T12:15:02.031Z,12.21
2017-11-23T12:16:02.074Z,12.27
2017-11-23T12:17:01.517Z,12.22
2017-11-23T12:18:01.813Z,12.24
2017-11-23T12:19:02.095Z,12.24
2017-11-23T12:20:01.846Z,12.31
2017-11-23T12:21:01.861Z,12.35
2017-11-23T12:22:02.151Z,12.28
2017-11-23T12:23:01.891Z,12.28
2017-11-23T12:24:01.914Z,12.28
2017-11-23T12:25:01.935Z,12.37
2017-11-23T12:26:01.933Z,12.31
2017-11-23T12:27:02.239Z,12.45
2017-11-23T12:28:02.234Z,12.4
2017-11-23T12:29:02.268Z,12.42
2017-11-23T12:30:01.725Z,12.32
2017-11-23T12:31:02.282Z,12.46
2017-11-23T12:32:02.034Z,12.31
2017-11-23T12:33:02.044Z,12.4
2017-11-23T12:34:02.332Z,12.4
2017-11-23T12:35:02.350Z,12.43
2017-11-23T12:36:02.367Z,12.45
2017-11-23T12:37:02.107Z,12.39
2017-11-23T12:38:02.169Z,12.43
2017-11-23T12:39:02.417Z,12.58
2017-11-23T12:40:02.434Z,12.54
2017-11-23T12:41:02.443Z,12.43
2017-11-23T12:42:02.465Z,12.46
2017-11-23T12:43:02.207Z,12.49
2017-11-23T12:44:02.494Z,12.5
2017-11-23T12:45:02.512Z,12.54
2017-11-23T12:46:02.568Z,12.54
2017-11-23T12:47:01.999Z,12.55
2017-11-23T12:48:02.560Z,12.54
2017-11-23T12:49:02.304Z,12.61
2017-11-23T12:50:02.596Z,12.65
2017-11-23T12:51:02.607Z,12.58
2017-11-23T12:52:02.632Z,12.61
2017-11-23T12:53:02.669Z,12.61
2017-11-23T12:54:02.398Z,12.78
2017-11-23T12:55:02.672Z,12.61
2017-11-23T12:56:02.711Z,12.73
2017-11-23T12:57:02.438Z,12.62
2017-11-23T12:58:02.722Z,12.72
2017-11-23T12:59:02.467Z,12.72
2017-11-23T13:00:02.756Z,12.7
2017-11-23T13:01:02.782Z,12.72
2017-11-23T13:02:02.802Z,12.79
2017-11-23T13:03:02.805Z,12.78
2017-11-23T13:04:02.831Z,12.8
2017-11-23T13:05:02.563Z,12.78
2017-11-23T13:06:02.584Z,12.8
2017-11-23T13:07:02.873Z,12.85
2017-11-23T13:08:02.893Z,12.82
2017-11-23T13:09:02.900Z,12.85
2017-11-23T13:10:02.942Z,12.85
2017-11-23T13:11:02.660Z,12.85
2017-11-23T13:12:02.686Z,12.87
2017-11-23T13:13:02.701Z,12.91
2017-11-23T13:14:02.985Z,12.91
2017-11-23T13:15:03.004Z,12.91
2017-11-23T13:16:03.020Z,12.94